Time;durP1;ratioP1;P1;durP2;ratioP2;P2;SDS_P1;SDS_P2;PMS_P1;PMS_P2;Temp;Humidity;BMP_temperature;BMP_pressure;BME280_temperature;BME280_humidity;BME280_pressure;Samples;Min_cycle;Max_cycle;Signal;HPM_P1;HPM_P2
2021/06/24 00:01:07;;;;;;;22.13;3.53;;;40.50;27.70;;;;;;5063408;28;20094;-61
2021/06/24 00:03:36;;;;;;;15.73;3.25;;;40.60;27.70;;;;;;5063141;28;20605;-68
2021/06/24 00:06:05;;;;;;;18.25;3.70;;;40.60;27.60;;;;;;5063272;28;20438;-65
2021/06/24 00:08:32;;;;;;;20.55;3.85;;;40.60;27.60;;;;;;5063489;28;20078;-64
2021/06/24 00:11:00;;;;;;;17.65;3.20;;;40.60;27.60;;;;;;5060713;28;20081;-65
2021/06/24 00:13:27;;;;;;;9.38;2.92;;;40.50;27.30;;;;;;5060462;28;20084;-63
2021/06/24 00:15:54;;;;;;;15.63;3.50;;;40.40;27.80;;;;;;5058871;28;20556;-65
2021/06/24 00:18:21;;;;;;;15.32;3.13;;;40.30;28.00;;;;;;5061983;28;20085;-64
2021/06/24 00:20:49;;;;;;;14.98;2.88;;;40.30;27.70;;;;;;5059229;28;20174;-66
2021/06/24 00:23:16;;;;;;;26.67;3.72;;;40.20;27.40;;;;;;5061594;28;20077;-65
2021/06/24 00:25:43;;;;;;;20.60;3.47;;;40.10;27.50;;;;;;5062982;28;20081;-64
2021/06/24 00:28:16;;;;;;;10.25;2.90;;;39.90;27.70;;;;;;5060382;28;20082;-64
2021/06/24 00:30:45;;;;;;;15.10;2.97;;;39.80;27.80;;;;;;5060283;28;20073;-65
2021/06/24 00:33:12;;;;;;;21.73;4.00;;;39.60;27.90;;;;;;5060582;28;20070;-65
2021/06/24 00:35:39;;;;;;;21.08;3.22;;;39.40;28.00;;;;;;5060761;28;20138;-65
2021/06/24 00:38:06;;;;;;;11.48;3.20;;;39.20;28.20;;;;;;5060275;28;20073;-65
2021/06/24 00:40:36;;;;;;;20.27;3.22;;;39.00;28.20;;;;;;5066883;28;20116;-65
2021/06/24 00:43:05;;;;;;;18.10;3.80;;;38.80;28.80;;;;;;5062750;28;20479;-66
2021/06/24 00:45:32;;;;;;;16.73;3.80;;;38.70;28.20;;;;;;5065091;28;20572;-65
2021/06/24 00:48:00;;;;;;;19.42;3.88;;;38.50;28.20;;;;;;5065922;28;20093;-65
2021/06/24 00:50:27;;;;;;;27.30;8.05;;;38.40;28.20;;;;;;5065245;28;20069;-66
2021/06/24 00:52:53;;;;;;;28.90;6.20;;;38.40;28.30;;;;;;5058603;28;20546;-67
2021/06/24 00:55:39;;;;;;;21.40;4.00;;;38.20;28.80;;;;;;5061115;28;20069;-66
2021/06/24 00:58:13;;;;;;;21.98;4.07;;;38.00;28.80;;;;;;5062055;28;20078;-66
2021/06/24 01:00:42;;;;;;;18.70;3.15;;;38.00;28.60;;;;;;5066045;28;20101;-65
2021/06/24 01:03:13;;;;;;;23.33;3.42;;;37.90;28.60;;;;;;5062220;28;20130;-64
2021/06/24 01:05:41;;;;;;;13.10;3.17;;;37.80;28.60;;;;;;5063671;28;20099;-64
2021/06/24 01:08:10;;;;;;;13.55;2.83;;;37.70;28.50;;;;;;5056915;28;20073;-64
2021/06/24 01:10:38;;;;;;;21.17;3.17;;;37.60;28.10;;;;;;5060497;28;20124;-65
2021/06/24 01:13:06;;;;;;;20.13;3.33;;;37.50;28.20;;;;;;5057205;28;20080;-66
2021/06/24 01:15:33;;;;;;;11.75;2.42;;;37.50;27.50;;;;;;5058041;28;20076;-65
2021/06/24 01:18:01;;;;;;;15.02;2.70;;;37.40;27.00;;;;;;5063601;28;20078;-64
2021/06/24 01:20:34;;;;;;;14.65;2.90;;;37.40;27.00;;;;;;5061162;28;20176;-65
2021/06/24 01:23:01;;;;;;;14.93;3.70;;;37.20;27.50;;;;;;5067702;28;20438;-65
2021/06/24 01:25:28;;;;;;;16.58;4.28;;;37.20;27.70;;;;;;5063605;28;20475;-65
2021/06/24 01:28:03;;;;;;;25.20;6.05;;;37.10;27.60;;;;;;5061155;28;20441;-65
2021/06/24 01:30:30;;;;;;;26.20;8.00;;;37.10;27.80;;;;;;5066738;28;20113;-65
2021/06/24 01:32:57;;;;;;;29.55;8.77;;;37.10;28.20;;;;;;5063015;28;20131;-66
2021/06/24 01:35:26;;;;;;;27.55;7.90;;;37.10;28.20;;;;;;5064908;28;20065;-65
2021/06/24 01:38:01;;;;;;;24.35;5.63;;;37.00;27.90;;;;;;5065231;28;20092;-65
2021/06/24 01:40:29;;;;;;;24.60;5.50;;;36.90;28.30;;;;;;5062966;28;20117;-64
2021/06/24 01:42:56;;;;;;;21.65;4.97;;;36.80;28.60;;;;;;5064745;28;20081;-64
2021/06/24 01:45:23;;;;;;;18.52;4.95;;;36.80;28.90;;;;;;5064069;28;20221;-66
2021/06/24 01:47:50;;;;;;;14.13;4.03;;;36.70;29.20;;;;;;5059341;28;20065;-63
2021/06/24 01:50:18;;;;;;;27.52;4.90;;;36.70;29.60;;;;;;5065440;28;20210;-63
2021/06/24 01:52:49;;;;;;;19.67;4.70;;;36.70;29.80;;;;;;5062103;28;20100;-65
2021/06/24 01:55:17;;;;;;;20.67;5.47;;;36.60;30.00;;;;;;5061506;28;20069;-66
2021/06/24 01:57:44;;;;;;;25.92;5.68;;;36.60;30.00;;;;;;5063922;28;20069;-65
2021/06/24 02:00:12;;;;;;;17.58;4.43;;;36.60;30.20;;;;;;5064078;28;20453;-65
2021/06/24 02:02:40;;;;;;;19.10;4.38;;;36.60;30.00;;;;;;5064339;28;20077;-65
2021/06/24 02:05:08;;;;;;;15.73;4.10;;;36.50;29.70;;;;;;5059086;28;20072;-64
2021/06/24 02:07:39;;;;;;;24.17;4.97;;;36.50;29.70;;;;;;5062165;28;20073;-64
2021/06/24 02:10:07;;;;;;;20.20;5.25;;;36.50;29.60;;;;;;5076606;28;20073;-64
2021/06/24 02:12:35;;;;;;;15.65;5.60;;;36.40;29.40;;;;;;5060509;28;20112;-64
2021/06/24 02:15:05;;;;;;;13.57;4.80;;;36.30;29.30;;;;;;5061891;28;20093;-64
2021/06/24 02:17:32;;;;;;;18.10;4.40;;;36.30;29.20;;;;;;5060706;28;20134;-64
2021/06/24 02:19:59;;;;;;;22.33;5.25;;;36.20;28.80;;;;;;5052577;28;20168;-66
2021/06/24 02:22:25;;;;;;;16.13;3.85;;;36.30;30.00;;;;;;5060459;28;20555;-63
2021/06/24 02:24:52;;;;;;;7.93;3.15;;;36.10;28.70;;;;;;5059652;28;20458;-65
2021/06/24 02:27:18;;;;;;;14.57;3.40;;;36.10;29.20;;;;;;5061407;28;20480;-65
2021/06/24 02:29:45;;;;;;;12.93;3.05;;;36.00;29.70;;;;;;5059929;28;20086;-64
2021/06/24 02:32:12;;;;;;;21.85;3.22;;;36.00;30.30;;;;;;5043885;28;20494;-65
2021/06/24 02:34:39;;;;;;;13.52;2.80;;;36.00;31.00;;;;;;5065246;28;20069;-64
2021/06/24 02:37:05;;;;;;;14.73;3.10;;;35.90;31.70;;;;;;5062659;28;20574;-64
2021/06/24 02:39:32;;;;;;;18.83;3.50;;;35.90;32.00;;;;;;5067743;28;20080;-65
2021/06/24 02:41:59;;;;;;;14.27;3.40;;;35.90;32.20;;;;;;5060426;28;20144;-65
2021/06/24 02:44:27;;;;;;;21.58;3.40;;;35.90;32.30;;;;;;5067918;28;20154;-65
2021/06/24 02:46:53;;;;;;;20.70;4.30;;;35.70;32.60;;;;;;5069388;28;20081;-65
2021/06/24 02:49:20;;;;;;;14.43;3.42;;;35.60;32.90;;;;;;5067228;28;20073;-65
2021/06/24 02:51:47;;;;;;;8.75;2.92;;;35.50;32.90;;;;;;5065206;28;20096;-64
2021/06/24 02:54:17;;;;;;;13.50;2.85;;;35.50;33.00;;;;;;5068278;28;20565;-64
2021/06/24 02:56:44;;;;;;;11.68;3.63;;;35.40;33.10;;;;;;5065925;28;20084;-64
2021/06/24 02:59:12;;;;;;;24.55;3.50;;;35.40;33.20;;;;;;5066888;28;20073;-63
2021/06/24 03:01:39;;;;;;;15.55;3.20;;;35.40;33.10;;;;;;5064654;28;20146;-64
2021/06/24 03:04:09;;;;;;;17.40;3.17;;;35.40;33.20;;;;;;5063912;28;20156;-63
2021/06/24 03:06:36;;;;;;;15.75;3.50;;;35.30;33.00;;;;;;5061450;28;20164;-65
2021/06/24 03:09:06;;;;;;;21.90;2.90;;;35.30;33.00;;;;;;5061984;28;20164;-64
2021/06/24 03:11:33;;;;;;;16.80;3.05;;;35.30;33.00;;;;;;5063242;28;20084;-64
2021/06/24 03:14:00;;;;;;;16.30;3.78;;;35.20;33.10;;;;;;5063501;28;20410;-64
2021/06/24 03:16:26;;;;;;;20.45;3.00;;;35.20;33.20;;;;;;5066926;28;20439;-64
2021/06/24 03:18:53;;;;;;;21.35;3.30;;;35.20;33.20;;;;;;5066648;28;20073;-65
2021/06/24 03:21:21;;;;;;;12.98;3.17;;;35.20;33.20;;;;;;5065862;28;20092;-64
2021/06/24 03:23:48;;;;;;;11.73;2.58;;;35.10;33.20;;;;;;5066065;28;20103;-65
2021/06/24 03:26:15;;;;;;;14.40;3.53;;;35.10;33.00;;;;;;5066655;28;20093;-64
2021/06/24 03:28:42;;;;;;;8.52;3.00;;;35.00;33.10;;;;;;5062476;28;20074;-64
2021/06/24 03:31:09;;;;;;;11.02;2.78;;;35.00;33.10;;;;;;5065687;28;20172;-64
2021/06/24 03:33:36;;;;;;;12.38;2.47;;;35.00;33.10;;;;;;5063321;28;20065;-65
2021/06/24 03:36:03;;;;;;;13.65;3.45;;;34.90;33.20;;;;;;5064269;28;20091;-64
2021/06/24 03:38:30;;;;;;;20.73;3.25;;;34.90;33.40;;;;;;5063412;28;20076;-64
2021/06/24 03:40:58;;;;;;;12.95;2.47;;;34.80;33.60;;;;;;5063715;28;20123;-64
2021/06/24 03:43:25;;;;;;;15.70;3.42;;;34.80;33.70;;;;;;5062424;28;20076;-64
2021/06/24 03:45:52;;;;;;;17.02;2.90;;;34.80;33.80;;;;;;5059430;28;20077;-64
2021/06/24 03:48:18;;;;;;;15.15;3.28;;;34.70;33.90;;;;;;5063531;28;20124;-64
2021/06/24 03:50:45;;;;;;;12.13;3.33;;;34.70;34.20;;;;;;5063942;28;20420;-64
2021/06/24 03:53:11;;;;;;;16.27;4.20;;;34.60;34.20;;;;;;5062550;28;20127;-64
2021/06/24 03:55:41;;;;;;;17.35;3.45;;;34.50;34.40;;;;;;5063116;28;20084;-65
2021/06/24 03:58:09;;;;;;;18.05;3.90;;;34.50;34.60;;;;;;5065932;28;20077;-65
2021/06/24 04:00:39;;;;;;;21.00;4.25;;;34.50;34.60;;;;;;5061418;28;20128;-63
2021/06/24 04:03:06;;;;;;;20.48;4.00;;;34.50;34.80;;;;;;5065152;28;20632;-64
2021/06/24 04:05:33;;;;;;;13.43;3.28;;;34.40;34.90;;;;;;5063598;28;20084;-65
2021/06/24 04:08:00;;;;;;;19.30;3.80;;;34.40;35.10;;;;;;5059495;28;20161;-65
2021/06/24 04:10:28;;;;;;;13.32;4.00;;;34.40;35.30;;;;;;5061965;28;20097;-65
2021/06/24 04:12:55;;;;;;;18.42;3.65;;;34.40;35.60;;;;;;5062396;28;20081;-65
2021/06/24 04:15:22;;;;;;;15.18;3.78;;;34.30;35.60;;;;;;5063309;28;20127;-65
2021/06/24 04:17:49;;;;;;;16.92;3.97;;;34.20;35.60;;;;;;5062538;28;20128;-65
2021/06/24 04:20:16;;;;;;;13.45;3.92;;;34.30;35.60;;;;;;5063936;28;20073;-66
2021/06/24 04:22:43;;;;;;;15.73;3.80;;;34.20;35.80;;;;;;5061576;28;20078;-64
2021/06/24 04:25:11;;;;;;;16.05;3.50;;;34.20;36.00;;;;;;5059884;28;20065;-64
2021/06/24 04:27:39;;;;;;;21.15;4.63;;;34.10;36.10;;;;;;5064077;28;20794;-64
2021/06/24 04:30:07;;;;;;;16.13;3.67;;;34.00;36.20;;;;;;5060829;28;20066;-64
2021/06/24 04:32:33;;;;;;;20.27;4.32;;;34.00;36.30;;;;;;5061763;28;20116;-65
2021/06/24 04:35:00;;;;;;;13.65;4.07;;;33.90;36.50;;;;;;5065281;28;20075;-64
2021/06/24 04:37:26;;;;;;;14.88;3.53;;;33.90;36.70;;;;;;5065190;28;20099;-64
2021/06/24 04:39:53;;;;;;;23.80;3.75;;;33.80;36.80;;;;;;5065617;28;20076;-64
2021/06/24 04:42:19;;;;;;;13.75;3.40;;;33.80;37.10;;;;;;5064603;28;20101;-64
2021/06/24 04:44:46;;;;;;;19.13;3.78;;;33.80;37.40;;;;;;5065030;28;20065;-64
2021/06/24 04:47:12;;;;;;;9.52;3.72;;;33.70;37.80;;;;;;5063479;28;20088;-64
2021/06/24 04:49:39;;;;;;;14.15;3.70;;;33.80;38.20;;;;;;5063192;28;20519;-64
2021/06/24 04:52:05;;;;;;;14.13;3.65;;;33.70;38.10;;;;;;5063056;28;20462;-65
2021/06/24 04:54:32;;;;;;;16.30;3.67;;;33.70;38.20;;;;;;5063067;28;20081;-66
2021/06/24 04:56:58;;;;;;;16.17;4.05;;;33.60;38.50;;;;;;5064460;28;20077;-65
2021/06/24 04:59:25;;;;;;;18.13;4.72;;;33.50;38.60;;;;;;5061789;28;20119;-65
2021/06/24 05:01:52;;;;;;;19.00;5.30;;;33.50;38.70;;;;;;5065019;28;20143;-65
2021/06/24 05:04:19;;;;;;;19.05;4.57;;;33.40;38.90;;;;;;5062396;28;20084;-65
2021/06/24 05:06:50;;;;;;;22.15;4.95;;;33.30;38.90;;;;;;5061372;28;20077;-66
2021/06/24 05:09:23;;;;;;;20.10;4.40;;;33.30;39.00;;;;;;5062103;28;20058;-64
2021/06/24 05:11:50;;;;;;;18.90;4.28;;;33.30;38.70;;;;;;5062148;28;20487;-64
2021/06/24 05:14:17;;;;;;;14.15;3.92;;;33.20;38.70;;;;;;5066794;28;20095;-64
2021/06/24 05:16:43;;;;;;;16.17;3.25;;;33.10;38.70;;;;;;5058929;28;20549;-64
2021/06/24 05:19:10;;;;;;;11.60;3.78;;;33.10;38.90;;;;;;5062378;28;20530;-64
2021/06/24 05:21:44;;;;;;;18.98;4.03;;;33.10;39.10;;;;;;5063477;28;20183;-64
2021/06/24 05:24:11;;;;;;;13.73;3.92;;;33.00;39.10;;;;;;5059566;28;20069;-65
2021/06/24 05:26:37;;;;;;;11.85;3.97;;;33.00;39.30;;;;;;5061344;28;20044;-64
2021/06/24 05:29:04;;;;;;;9.18;3.63;;;33.00;39.60;;;;;;5065116;28;20164;-65
2021/06/24 05:31:31;;;;;;;19.02;3.88;;;32.90;40.00;;;;;;5062783;28;20081;-64
2021/06/24 05:33:58;;;;;;;19.23;4.15;;;32.90;40.40;;;;;;5062182;28;20407;-65
2021/06/24 05:36:24;;;;;;;20.33;3.75;;;32.80;40.60;;;;;;5063556;28;20530;-65
2021/06/24 05:38:51;;;;;;;15.63;4.22;;;32.90;40.70;;;;;;5060341;28;20084;-65
2021/06/24 05:41:17;;;;;;;24.90;4.25;;;32.80;41.60;;;;;;5065678;28;20116;-65
2021/06/24 05:43:44;;;;;;;21.83;4.95;;;32.80;41.20;;;;;;5064704;28;20072;-65
2021/06/24 05:46:12;;;;;;;34.60;6.07;;;32.80;41.30;;;;;;5065881;28;20226;-66
2021/06/24 05:48:38;;;;;;;23.75;5.03;;;32.80;42.20;;;;;;5064000;28;20080;-65
2021/06/24 05:51:05;;;;;;;15.50;4.35;;;32.80;41.50;;;;;;5061961;28;20080;-65
2021/06/24 05:53:31;;;;;;;24.55;5.03;;;32.80;41.60;;;;;;5066505;28;20073;-65
2021/06/24 05:55:58;;;;;;;21.90;4.15;;;32.70;41.80;;;;;;5058072;28;20069;-65
2021/06/24 05:58:31;;;;;;;13.93;3.88;;;32.70;42.00;;;;;;5063561;28;20065;-65
2021/06/24 06:00:59;;;;;;;15.48;4.35;;;32.60;42.20;;;;;;5062819;28;20100;-65
2021/06/24 06:03:26;;;;;;;16.60;4.75;;;32.70;42.40;;;;;;5062990;28;20069;-65
2021/06/24 06:05:53;;;;;;;22.13;4.60;;;32.60;42.40;;;;;;5062139;28;20131;-65
2021/06/24 06:08:21;;;;;;;19.65;5.50;;;32.60;42.60;;;;;;5064947;28;20084;-65
2021/06/24 06:10:47;;;;;;;18.70;5.40;;;32.60;42.80;;;;;;5064709;28;20073;-65
2021/06/24 06:13:14;;;;;;;24.15;6.45;;;32.50;43.00;;;;;;5066523;28;20073;-65
2021/06/24 06:15:49;;;;;;;20.40;5.78;;;32.50;43.10;;;;;;5066338;28;20079;-65
2021/06/24 06:18:18;;;;;;;23.90;5.80;;;32.30;43.50;;;;;;5067138;28;20076;-65
2021/06/24 06:20:45;;;;;;;23.05;6.28;;;32.20;43.80;;;;;;5059703;28;20081;-65
2021/06/24 06:23:15;;;;;;;31.77;7.00;;;32.20;43.90;;;;;;5067960;28;20163;-64
2021/06/24 06:25:44;;;;;;;23.40;5.53;;;32.10;48.70;;;;;;5064471;28;20075;-65
2021/06/24 06:28:12;;;;;;;21.25;5.88;;;32.00;44.30;;;;;;5069480;28;20069;-65
2021/06/24 06:30:38;;;;;;;28.88;6.47;;;32.00;45.10;;;;;;5068653;28;20081;-65
2021/06/24 06:33:05;;;;;;;22.58;5.32;;;31.90;44.60;;;;;;5065208;28;20073;-62
2021/06/24 06:35:32;;;;;;;19.60;4.93;;;32.00;45.00;;;;;;5064306;28;20477;-61
2021/06/24 06:37:59;;;;;;;18.38;4.68;;;32.30;44.40;;;;;;5065380;28;20160;-62
2021/06/24 06:40:26;;;;;;;30.05;4.82;;;32.60;43.60;;;;;;5065361;28;20643;-63
2021/06/24 06:42:53;;;;;;;18.10;4.75;;;32.80;43.00;;;;;;5067725;28;20107;-62
2021/06/24 06:45:21;;;;;;;23.80;4.88;;;32.80;43.00;;;;;;5066877;28;20119;-62
2021/06/24 06:47:48;;;;;;;20.63;4.55;;;32.80;42.70;;;;;;5067162;28;20081;-62
2021/06/24 06:50:15;;;;;;;25.45;4.65;;;32.80;42.40;;;;;;5066107;28;20433;-63
2021/06/24 06:52:42;;;;;;;20.25;4.70;;;33.00;41.80;;;;;;5066054;28;20092;-63
2021/06/24 06:55:10;;;;;;;23.55;4.43;;;32.90;41.50;;;;;;5059622;28;20080;-63
2021/06/24 06:57:37;;;;;;;15.60;4.45;;;32.90;41.50;;;;;;5063844;28;20127;-63
2021/06/24 07:00:07;;;;;;;24.02;5.10;;;32.90;41.30;;;;;;5068179;28;20160;-62
2021/06/24 07:02:33;;;;;;;22.83;4.88;;;32.90;41.20;;;;;;5067754;28;20104;-63
2021/06/24 07:05:00;;;;;;;20.85;4.97;;;32.70;41.30;;;;;;5065449;28;20106;-63
2021/06/24 07:07:27;;;;;;;19.98;5.55;;;32.90;41.30;;;;;;5069471;28;20077;-63
2021/06/24 07:09:53;;;;;;;19.13;4.78;;;32.90;41.30;;;;;;5065317;28;20580;-63
2021/06/24 07:12:20;;;;;;;19.52;4.60;;;32.80;41.20;;;;;;5065073;28;20109;-63
2021/06/24 07:14:50;;;;;;;26.42;5.47;;;32.80;41.40;;;;;;5067911;28;20079;-62
2021/06/24 07:17:16;;;;;;;23.45;4.95;;;32.80;41.50;;;;;;5068269;28;20196;-61
2021/06/24 07:19:44;;;;;;;20.55;4.93;;;32.90;42.00;;;;;;5067423;28;20092;-61
2021/06/24 07:22:11;;;;;;;18.77;4.63;;;32.80;41.30;;;;;;5067383;28;20110;-61
2021/06/24 07:24:37;;;;;;;22.58;4.72;;;32.80;41.30;;;;;;5064523;28;20073;-61
2021/06/24 07:27:04;;;;;;;16.52;3.60;;;32.70;41.50;;;;;;5067007;28;20073;-62
2021/06/24 07:29:31;;;;;;;14.75;4.80;;;32.50;41.20;;;;;;5066629;28;20085;-62
2021/06/24 07:31:57;;;;;;;12.82;4.43;;;32.60;41.30;;;;;;5066355;28;20085;-64
2021/06/24 07:34:24;;;;;;;15.02;3.95;;;32.50;41.40;;;;;;5065327;28;20073;-62
2021/06/24 07:36:51;;;;;;;12.77;3.55;;;32.40;41.50;;;;;;5064411;28;20123;-62
2021/06/24 07:39:18;;;;;;;16.30;3.20;;;32.30;41.80;;;;;;5067667;28;20070;-63
2021/06/24 07:41:44;;;;;;;13.95;3.78;;;32.40;41.90;;;;;;5062547;28;20116;-63
2021/06/24 07:44:11;;;;;;;17.00;3.25;;;32.40;41.80;;;;;;5067248;28;20088;-63
2021/06/24 07:46:38;;;;;;;19.02;3.88;;;32.40;41.70;;;;;;5065193;28;20418;-62
2021/06/24 07:49:04;;;;;;;13.88;4.00;;;32.40;41.80;;;;;;5063465;28;20159;-62
2021/06/24 07:51:31;;;;;;;13.93;3.90;;;32.30;42.00;;;;;;5064819;28;20081;-63
2021/06/24 07:53:58;;;;;;;13.50;4.18;;;32.30;42.10;;;;;;5064653;28;20111;-63
2021/06/24 07:56:24;;;;;;;18.45;4.47;;;32.30;42.00;;;;;;5064181;28;20126;-63
2021/06/24 07:58:53;;;;;;;14.55;4.78;;;32.20;42.20;;;;;;5063079;28;20140;-62
2021/06/24 08:01:20;;;;;;;16.65;4.78;;;32.20;42.50;;;;;;5064117;28;20464;-62
2021/06/24 08:03:47;;;;;;;16.13;4.97;;;32.00;49.70;;;;;;5062944;28;20040;-62
2021/06/24 08:06:13;;;;;;;22.88;5.85;;;32.00;42.80;;;;;;5062421;28;20081;-63
2021/06/24 08:08:40;;;;;;;16.65;4.57;;;32.00;42.90;;;;;;5060576;28;20082;-63
2021/06/24 08:11:07;;;;;;;17.52;4.85;;;31.90;43.20;;;;;;5065992;28;20073;-62
2021/06/24 08:13:33;;;;;;;23.13;5.60;;;31.90;43.40;;;;;;5064488;28;20407;-62
2021/06/24 08:16:00;;;;;;;25.35;5.80;;;31.80;43.70;;;;;;5065802;28;20096;-63
2021/06/24 08:18:26;;;;;;;20.50;6.13;;;31.80;43.80;;;;;;5067752;28;20512;-63
2021/06/24 08:20:53;;;;;;;18.73;5.68;;;31.80;44.30;;;;;;5064784;28;20104;-63
2021/06/24 08:23:20;;;;;;;25.90;7.63;;;31.80;44.80;;;;;;5064139;28;20122;-63
2021/06/24 08:25:48;;;;;;;19.08;7.15;;;31.60;45.10;;;;;;5063519;28;20146;-62
2021/06/24 08:28:14;;;;;;;24.42;6.90;;;31.60;45.30;;;;;;5063877;28;20426;-63
2021/06/24 08:30:44;;;;;;;25.67;6.57;;;31.50;45.40;;;;;;5065620;28;20080;-63
2021/06/24 08:33:12;;;;;;;24.33;6.22;;;31.50;45.40;;;;;;5063203;28;20077;-62
2021/06/24 08:35:39;;;;;;;18.42;6.38;;;31.40;45.50;;;;;;5063991;28;20077;-62
2021/06/24 08:38:05;;;;;;;28.02;7.95;;;31.50;45.40;;;;;;5063763;28;20069;-62
2021/06/24 08:40:33;;;;;;;34.55;9.68;;;31.40;45.20;;;;;;5064646;28;20170;-63
2021/06/24 08:43:00;;;;;;;36.78;11.38;;;31.40;45.50;;;;;;5062241;28;20089;-62
2021/06/24 08:45:27;;;;;;;33.28;14.27;;;31.30;45.80;;;;;;5063245;28;20177;-62
2021/06/24 08:47:56;;;;;;;46.35;17.05;;;31.30;46.00;;;;;;5062320;28;20069;-62
2021/06/24 08:50:22;;;;;;;40.75;15.63;;;31.20;46.40;;;;;;5061325;28;20126;-62
2021/06/24 08:52:50;;;;;;;52.72;14.88;;;31.20;46.50;;;;;;5063849;28;20551;-62
2021/06/24 08:55:18;;;;;;;43.22;16.58;;;31.20;46.60;;;;;;5064371;28;20551;-62
2021/06/24 08:57:45;;;;;;;37.13;16.45;;;31.10;47.20;;;;;;5059706;28;20092;-62
2021/06/24 09:00:13;;;;;;;41.67;15.68;;;31.10;47.40;;;;;;5063960;28;20069;-62
2021/06/24 09:02:46;;;;;;;50.50;20.70;;;31.10;47.70;;;;;;5060523;28;20435;-62
2021/06/24 09:05:15;;;;;;;70.88;28.75;;;31.00;47.80;;;;;;5063499;28;20469;-62
2021/06/24 09:07:55;;;;;;;73.53;28.55;;;31.00;47.80;;;;;;5061432;28;20104;-62
2021/06/24 09:10:23;;;;;;;60.30;27.90;;;31.00;47.90;;;;;;5064284;28;20135;-62
2021/06/24 09:12:55;;;;;;;72.03;25.88;;;31.00;48.30;;;;;;5066765;28;20075;-61
2021/06/24 09:15:24;;;;;;;54.97;23.10;;;31.00;48.20;;;;;;5066013;28;20081;-61
2021/06/24 09:17:51;;;;;;;56.72;23.40;;;30.80;48.60;;;;;;5063789;28;20069;-62
2021/06/24 09:20:27;;;;;;;55.50;23.50;;;30.80;48.90;;;;;;5063150;28;20081;-62
2021/06/24 09:23:24;;;;;;;51.55;20.83;;;30.70;49.10;;;;;;5061150;28;20117;-61
2021/06/24 09:26:13;;;;;;;49.10;19.35;;;30.70;49.10;;;;;;5051179;28;20078;-62
2021/06/24 09:28:42;;;;;;;40.85;15.52;;;30.70;49.20;;;;;;5064781;28;20081;-62
2021/06/24 09:31:29;;;;;;;37.13;13.88;;;30.60;49.30;;;;;;5063083;28;20080;-63
2021/06/24 09:33:56;;;;;;;;;;;30.50;49.70;;;;;;5062356;28;20076;-62
2021/06/24 09:36:35;;;;;;;27.08;11.50;;;30.60;49.80;;;;;;5063095;28;19964;-62
2021/06/24 09:39:05;;;;;;;32.63;10.10;;;30.60;49.70;;;;;;5060898;28;20076;-63
2021/06/24 09:41:32;;;;;;;36.65;9.88;;;30.50;49.70;;;;;;5064165;28;20116;-62
2021/06/24 09:43:58;;;;;;;35.38;9.75;;;30.60;49.70;;;;;;5062458;28;20100;-62
2021/06/24 09:46:27;;;;;;;36.20;9.30;;;30.50;49.70;;;;;;5064099;28;20077;-62
2021/06/24 09:49:01;;;;;;;35.67;9.82;;;30.50;49.80;;;;;;5064194;28;20549;-63
2021/06/24 09:51:33;;;;;;;36.35;8.95;;;30.40;50.00;;;;;;5058661;28;20081;-63
2021/06/24 09:54:17;;;;;;;33.17;9.68;;;30.40;49.90;;;;;;5060503;28;20557;-62
2021/06/24 09:56:47;;;;;;;31.95;9.88;;;30.30;50.00;;;;;;5063644;28;20088;-62
2021/06/24 09:59:15;;;;;;;37.10;9.23;;;30.40;50.30;;;;;;5061252;28;20077;-62
2021/06/24 10:01:50;;;;;;;29.90;8.13;;;30.30;50.40;;;;;;5062007;28;20109;-62
2021/06/24 10:04:36;;;;;;;24.90;8.23;;;30.30;50.50;;;;;;5063093;28;20077;-61
2021/06/24 10:07:05;;;;;;;26.92;7.93;;;30.30;50.60;;;;;;5062572;28;20077;-62
2021/06/24 10:09:32;;;;;;;28.48;8.30;;;30.30;50.60;;;;;;5063245;28;20066;-62
2021/06/24 10:12:00;;;;;;;24.83;8.40;;;30.30;50.60;;;;;;5060926;28;20557;-62
2021/06/24 10:14:28;;;;;;;24.05;7.78;;;30.30;50.70;;;;;;5061805;28;20089;-62
2021/06/24 10:17:00;;;;;;;22.55;7.28;;;30.20;50.80;;;;;;5065949;28;20118;-62
2021/06/24 10:19:38;;;;;;;20.60;7.75;;;30.30;50.50;;;;;;5064244;28;20084;-62
2021/06/24 10:22:19;;;;;;;25.25;7.75;;;30.20;50.60;;;;;;5063548;28;20737;-62
2021/06/24 10:25:03;;;;;;;23.38;6.85;;;30.20;50.70;;;;;;5063966;28;20096;-62
2021/06/24 10:27:35;;;;;;;28.00;7.50;;;30.20;50.70;;;;;;5060718;28;20081;-62
2021/06/24 10:30:15;;;;;;;22.60;7.07;;;30.20;50.60;;;;;;5059177;28;20077;-62
2021/06/24 10:33:01;;;;;;;20.70;6.47;;;30.20;50.50;;;;;;5061057;28;20082;-62
2021/06/24 10:35:31;;;;;;;20.30;7.03;;;30.20;50.50;;;;;;5064349;28;20084;-62
2021/06/24 10:37:58;;;;;;;22.08;6.60;;;30.20;50.30;;;;;;5063319;28;20556;-63
2021/06/24 10:40:32;;;;;;;20.27;6.68;;;30.20;50.20;;;;;;5063572;28;20121;-62
2021/06/24 10:43:01;;;;;;;22.58;7.40;;;30.20;50.20;;;;;;5058750;28;20085;-61
2021/06/24 10:45:28;;;;;;;21.70;8.35;;;30.10;49.70;;;;;;5062074;28;20531;-61
2021/06/24 10:47:56;;;;;;;31.15;10.40;;;30.10;49.50;;;;;;5064641;28;20078;-62
2021/06/24 10:53:15;;;;;;;43.53;15.82;;;30.00;49.10;;;;;;5063354;28;20076;-61
2021/06/24 10:55:46;;;;;;;49.33;21.85;;;30.00;48.80;;;;;;5046672;28;20089;-62
2021/06/24 10:58:24;;;;;;;69.75;28.98;;;29.90;48.90;;;;;;5065804;28;20105;-62
2021/06/24 11:00:55;;;;;;;64.32;27.60;;;30.00;49.50;;;;;;5066544;28;20435;-62
2021/06/24 11:03:40;;;;;;;68.38;28.70;;;30.00;49.50;;;;;;5066257;28;20152;-61
2021/06/24 11:06:12;;;;;;;61.90;25.05;;;30.10;49.60;;;;;;5065424;28;20073;-59
2021/06/24 11:08:40;;;;;;;53.60;21.92;;;30.10;49.50;;;;;;5067433;28;20073;-62
2021/06/24 11:11:12;;;;;;;50.10;21.08;;;30.10;49.30;;;;;;5067026;28;20073;-62
2021/06/24 11:13:42;;;;;;;57.33;21.33;;;30.10;49.20;;;;;;5064692;28;20066;-62
2021/06/24 11:16:28;;;;;;;51.78;21.40;;;30.10;49.20;;;;;;5061996;28;20069;-62
2021/06/24 11:19:06;;;;;;;59.22;23.10;;;30.00;49.40;;;;;;5061556;28;20069;-61
2021/06/24 11:21:33;;;;;;;54.70;21.95;;;30.00;49.50;;;;;;5066811;28;20103;-63
2021/06/24 11:24:06;;;;;;;54.15;23.33;;;30.00;49.40;;;;;;5062196;28;20081;-62
2021/06/24 11:26:39;;;;;;;51.47;20.88;;;30.00;49.50;;;;;;5066449;28;20073;-63
2021/06/24 11:29:09;;;;;;;39.22;17.83;;;29.90;49.20;;;;;;5065789;28;20080;-63
2021/06/24 11:31:49;;;;;;;39.35;16.08;;;29.90;49.10;;;;;;5066352;28;20383;-63
2021/06/24 11:36:53;;;;;;;29.55;10.32;;;29.80;48.20;;;;;;5064204;28;20057;-63
2021/06/24 11:39:35;;;;;;;26.60;8.18;;;29.80;47.90;;;;;;5065268;28;20163;-62
2021/06/24 11:42:10;;;;;;;21.55;7.22;;;29.90;47.50;;;;;;5061706;28;20123;-63
2021/06/24 11:44:47;;;;;;;17.33;6.13;;;29.90;47.40;;;;;;5068560;28;20096;-63
2021/06/24 11:47:22;;;;;;;13.13;5.00;;;29.90;46.90;;;;;;5065358;28;20131;-63
2021/06/24 12:04:24;;;;;;;13.65;4.55;;;29.80;46.40;;;;;;5068061;28;20078;-63
2021/06/24 12:07:00;;;;;;;15.63;4.00;;;29.80;46.50;;;;;;5065653;28;20065;-63
2021/06/24 12:10:03;;;;;;;15.20;3.88;;;29.80;46.50;;;;;;5062729;28;20148;-62
2021/06/24 12:12:31;;;;;;;16.73;3.42;;;29.80;46.60;;;;;;4990576;28;20089;-63
2021/06/24 12:15:03;;;;;;;13.40;3.72;;;29.70;46.80;;;;;;5050734;28;20120;-63
2021/06/24 12:17:38;;;;;;;14.52;3.67;;;29.70;46.90;;;;;;5065918;28;20433;-63
2021/06/24 12:20:12;;;;;;;14.60;4.10;;;29.80;47.20;;;;;;5061709;28;20072;-62
2021/06/24 12:22:48;;;;;;;21.65;4.93;;;29.70;47.40;;;;;;5061958;28;20535;-63
2021/06/24 12:25:25;;;;;;;;;;;29.70;48.00;;;;;;5068799;28;20083;-62
2021/06/24 12:28:03;;;;;;;25.33;7.13;;;29.70;47.80;;;;;;5063363;28;19957;-62
2021/06/24 12:30:43;;;;;;;29.85;7.75;;;29.70;48.10;;;;;;5064686;28;20085;-62
2021/06/24 12:33:12;;;;;;;33.03;8.60;;;29.70;48.30;;;;;;5062500;28;20091;-61
2021/06/24 12:35:46;;;;;;;31.65;10.35;;;29.70;48.30;;;;;;5062455;28;20069;-62
2021/06/24 12:38:22;;;;;;;37.10;12.35;;;29.70;48.50;;;;;;5063237;28;20171;-62
2021/06/24 12:40:58;;;;;;;35.17;14.57;;;29.70;48.70;;;;;;5064252;28;21439;-63
2021/06/24 12:43:27;;;;;;;37.88;16.40;;;29.50;48.90;;;;;;5063395;28;20073;-63
2021/06/24 12:45:56;;;;;;;50.05;20.45;;;29.40;49.30;;;;;;5062771;28;20092;-63
2021/06/24 12:48:35;;;;;;;49.30;19.92;;;29.40;49.70;;;;;;5062622;28;20083;-62
2021/06/24 12:51:08;;;;;;;36.33;15.98;;;29.40;49.80;;;;;;5062189;28;20157;-63
2021/06/24 12:53:40;;;;;;;32.28;13.88;;;29.50;49.70;;;;;;5065967;28;20126;-63
2021/06/24 12:56:28;;;;;;;34.80;12.85;;;29.40;49.50;;;;;;5059918;28;20079;-63
2021/06/24 12:59:10;;;;;;;29.05;12.25;;;29.40;49.80;;;;;;5065820;28;20602;-62
2021/06/24 13:01:38;;;;;;;24.65;10.60;;;29.50;49.90;;;;;;5062816;28;20100;-63
2021/06/24 13:04:19;;;;;;;26.58;9.57;;;29.50;50.00;;;;;;5065336;28;20069;-62
2021/06/24 13:06:51;;;;;;;38.30;9.55;;;29.50;50.20;;;;;;5066004;28;20077;-62